createdAt,value
2018-02-26T00:01:05.555Z,11.12
2018-02-26T00:03:31.800Z,10.15
2018-02-26T00:05:58.038Z,10.55
2018-02-26T00:08:24.257Z,9.02
2018-02-26T00:10:50.485Z,9.55
2018-02-26T00:13:16.962Z,7.22
2018-02-26T00:15:43.186Z,11.02
2018-02-26T00:18:09.403Z,10.10
2018-02-26T00:20:35.624Z,8.70
2018-02-26T00:23:01.821Z,9.93
2018-02-26T00:25:28.039Z,9.90
2018-02-26T00:27:54.286Z,9.63
2018-02-26T00:30:20.491Z,12.02
2018-02-26T00:32:46.709Z,9.63
2018-02-26T00:35:13.349Z,13.75
2018-02-26T00:37:39.529Z,7.03
2018-02-26T00:40:05.751Z,9.43
2018-02-26T00:42:32.011Z,10.82
2018-02-26T00:44:58.198Z,8.82
2018-02-26T00:47:24.427Z,13.15
2018-02-26T00:49:50.674Z,9.82
2018-02-26T00:52:16.881Z,10.75
2018-02-26T00:54:43.075Z,7.80
2018-02-26T00:57:09.731Z,10.13
2018-02-26T00:59:35.939Z,8.98
2018-02-26T01:02:02.136Z,8.77
2018-02-26T01:04:28.388Z,7.78
2018-02-26T01:06:54.959Z,9.48
2018-02-26T01:09:21.148Z,11.12
2018-02-26T01:11:47.735Z,9.75
2018-02-26T01:14:13.938Z,12.20
2018-02-26T01:16:40.148Z,12.35
2018-02-26T01:19:06.764Z,8.77
2018-02-26T01:21:32.948Z,11.55
2018-02-26T01:23:59.193Z,9.70
2018-02-26T01:26:25.430Z,10.55
2018-02-26T01:28:51.647Z,9.15
2018-02-26T01:31:17.870Z,8.70
2018-02-26T01:33:44.046Z,11.85
2018-02-26T01:36:10.257Z,13.43
2018-02-26T01:38:36.735Z,9.52
2018-02-26T01:41:02.944Z,11.12
2018-02-26T01:43:29.142Z,8.75
2018-02-26T01:45:55.366Z,9.70
2018-02-26T01:48:21.560Z,8.65
2018-02-26T01:51:00.029Z,10.13
2018-02-26T01:53:26.634Z,10.60
2018-02-26T01:55:52.826Z,8.07
2018-02-26T01:58:19.071Z,11.02
2018-02-26T02:00:45.294Z,10.57
2018-02-26T02:03:11.507Z,11.27
2018-02-26T02:05:37.719Z,12.45
2018-02-26T02:08:03.952Z,8.10
2018-02-26T02:10:30.140Z,9.55
2018-02-26T02:12:56.374Z,9.82
2018-02-26T02:15:22.584Z,8.48
2018-02-26T02:17:48.795Z,7.28
2018-02-26T02:20:15.044Z,9.70
2018-02-26T02:22:41.242Z,8.82
2018-02-26T02:25:07.435Z,13.68
2018-02-26T02:27:34.035Z,10.13
2018-02-26T02:30:00.268Z,7.43
2018-02-26T02:32:26.477Z,10.25
2018-02-26T02:34:52.672Z,8.23
2018-02-26T02:37:18.904Z,10.15
2018-02-26T02:39:45.091Z,9.45
2018-02-26T02:42:11.296Z,9.85
2018-02-26T02:44:37.523Z,7.55
2018-02-26T02:47:03.748Z,10.40
2018-02-26T02:49:29.974Z,10.57
2018-02-26T02:51:56.208Z,7.10
2018-02-26T02:54:22.494Z,7.97
2018-02-26T02:56:48.700Z,15.40
2018-02-26T02:59:15.317Z,8.15
2018-02-26T03:01:41.932Z,9.57
2018-02-26T03:04:08.122Z,11.77
2018-02-26T03:06:34.309Z,10.73
2018-02-26T03:09:00.521Z,10.07
2018-02-26T03:11:26.741Z,10.30
2018-02-26T03:13:52.965Z,8.77
2018-02-26T03:16:19.196Z,10.70
2018-02-26T03:18:45.428Z,13.05
2018-02-26T03:21:11.619Z,8.10
2018-02-26T03:23:37.842Z,10.65
2018-02-26T03:26:04.061Z,8.13
2018-02-26T03:28:30.271Z,9.10
2018-02-26T03:30:56.485Z,11.20
2018-02-26T03:33:22.779Z,7.60
2018-02-26T03:35:48.951Z,9.00
2018-02-26T03:38:15.540Z,10.15
2018-02-26T03:40:41.740Z,9.43
2018-02-26T03:43:07.923Z,9.75
2018-02-26T03:45:34.149Z,16.17
2018-02-26T03:48:00.322Z,11.25
2018-02-26T03:50:26.527Z,9.48
2018-02-26T03:52:53.553Z,8.95
2018-02-26T03:55:19.755Z,11.80
2018-02-26T03:57:45.977Z,8.77
2018-02-26T04:00:12.488Z,14.40
2018-02-26T04:02:38.679Z,8.93
2018-02-26T04:05:04.868Z,10.23
2018-02-26T04:07:31.072Z,9.00
2018-02-26T04:09:57.281Z,10.65
2018-02-26T04:12:23.507Z,9.13
2018-02-26T04:14:49.748Z,11.52
2018-02-26T04:17:15.992Z,10.43
2018-02-26T04:19:42.172Z,14.32
2018-02-26T04:22:08.383Z,15.45
2018-02-26T04:24:34.608Z,10.05
2018-02-26T04:27:00.832Z,14.85
2018-02-26T04:29:27.052Z,10.48
2018-02-26T04:31:53.268Z,12.15
2018-02-26T04:34:19.493Z,15.50
2018-02-26T04:36:45.963Z,12.30
2018-02-26T04:39:12.140Z,10.13
2018-02-26T04:41:38.356Z,12.48
2018-02-26T04:44:04.572Z,11.45
2018-02-26T04:46:30.816Z,12.30
2018-02-26T04:48:57.048Z,11.63
2018-02-26T04:51:23.290Z,13.38
2018-02-26T04:53:49.509Z,11.02
2018-02-26T04:56:15.726Z,17.80
2018-02-26T04:58:41.965Z,13.95
2018-02-26T05:01:08.224Z,8.45
2018-02-26T05:03:34.446Z,19.40
2018-02-26T05:06:00.680Z,11.90
2018-02-26T05:08:27.222Z,13.88
2018-02-26T05:10:53.482Z,10.80
2018-02-26T05:13:19.666Z,12.30
2018-02-26T05:15:45.891Z,12.70
2018-02-26T05:18:12.084Z,10.70
2018-02-26T05:20:38.291Z,18.52
2018-02-26T05:23:04.866Z,11.27
2018-02-26T05:25:31.088Z,12.57
2018-02-26T05:27:57.284Z,13.55
2018-02-26T05:30:24.159Z,11.10
2018-02-26T05:32:50.365Z,13.43
2018-02-26T05:35:16.579Z,15.68
2018-02-26T05:37:43.178Z,19.33
2018-02-26T05:40:09.409Z,14.23
2018-02-26T05:42:35.630Z,10.27
2018-02-26T05:45:01.866Z,15.35
2018-02-26T05:47:28.066Z,11.25
2018-02-26T05:49:54.299Z,15.15
2018-02-26T05:52:20.550Z,12.35
2018-02-26T05:54:46.793Z,12.32
2018-02-26T05:57:13.032Z,12.55
2018-02-26T05:59:39.266Z,12.48
2018-02-26T06:02:05.886Z,16.83
2018-02-26T06:04:32.109Z,14.75
2018-02-26T06:06:58.327Z,14.18
2018-02-26T06:09:24.561Z,16.87
2018-02-26T06:11:50.767Z,12.80
2018-02-26T06:14:16.974Z,12.00
2018-02-26T06:16:43.191Z,13.68
2018-02-26T06:19:09.449Z,15.25
2018-02-26T06:21:35.773Z,16.45
2018-02-26T06:24:01.937Z,11.88
2018-02-26T06:26:28.160Z,9.63
2018-02-26T06:28:54.774Z,12.57
2018-02-26T06:31:20.996Z,17.30
2018-02-26T06:33:47.231Z,17.58
2018-02-26T06:36:13.458Z,15.48
2018-02-26T06:38:39.667Z,14.75
2018-02-26T06:41:05.880Z,13.77
2018-02-26T06:43:32.135Z,13.13
2018-02-26T06:45:58.348Z,19.45
2018-02-26T06:48:24.577Z,16.83
2018-02-26T06:50:51.262Z,15.73
2018-02-26T06:53:17.554Z,14.80
2018-02-26T06:55:43.760Z,14.00
2018-02-26T06:58:10.021Z,66.60
2018-02-26T07:00:36.873Z,21.87
2018-02-26T07:03:03.118Z,13.55
2018-02-26T07:05:29.371Z,16.42
2018-02-26T07:07:55.556Z,17.35
2018-02-26T07:10:21.786Z,16.37
2018-02-26T07:12:48.016Z,19.77
2018-02-26T07:15:14.217Z,16.98
2018-02-26T07:17:40.512Z,16.35
2018-02-26T07:20:06.692Z,13.13
2018-02-26T07:22:32.919Z,17.33
2018-02-26T07:24:59.127Z,15.18
2018-02-26T07:27:25.355Z,16.80
2018-02-26T07:29:51.583Z,17.73
2018-02-26T07:32:17.786Z,25.15
2018-02-26T07:34:44.002Z,17.87
2018-02-26T07:37:10.609Z,21.23
2018-02-26T07:39:36.862Z,21.35
2018-02-26T07:42:03.451Z,21.10
2018-02-26T07:44:29.697Z,18.25
2018-02-26T07:46:55.934Z,17.75
2018-02-26T07:49:22.164Z,19.95
2018-02-26T07:51:48.368Z,18.67
2018-02-26T07:54:15.292Z,14.43
2018-02-26T07:56:41.487Z,20.92
2018-02-26T07:59:08.082Z,16.83
2018-02-26T08:01:34.295Z,17.25
2018-02-26T08:04:00.490Z,18.90
2018-02-26T08:06:26.790Z,23.77
2018-02-26T08:08:53.041Z,18.17
2018-02-26T08:11:19.612Z,17.85
2018-02-26T08:13:45.826Z,19.50
2018-02-26T08:16:12.017Z,23.35
2018-02-26T08:18:38.239Z,19.60
2018-02-26T08:21:04.866Z,21.23
2018-02-26T08:23:31.043Z,19.17
2018-02-26T08:25:57.287Z,19.95
2018-02-26T08:28:23.484Z,26.15
2018-02-26T08:30:49.754Z,23.70
2018-02-26T08:33:15.961Z,19.37
2018-02-26T08:35:42.189Z,19.25
2018-02-26T08:38:08.429Z,22.92
2018-02-26T08:40:34.648Z,20.05
2018-02-26T08:43:01.224Z,18.67
2018-02-26T08:45:27.442Z,32.35
2018-02-26T08:47:53.657Z,23.80
2018-02-26T08:50:19.900Z,26.58
2018-02-26T08:52:46.136Z,23.67
2018-02-26T08:55:12.354Z,20.42
2018-02-26T08:57:38.579Z,24.65
2018-02-26T09:00:04.772Z,21.27
2018-02-26T09:02:31.039Z,21.67
2018-02-26T09:04:57.281Z,24.48
2018-02-26T09:07:23.511Z,23.65
2018-02-26T09:09:49.726Z,22.90
2018-02-26T09:12:15.966Z,23.60
2018-02-26T09:14:42.194Z,19.17
2018-02-26T09:17:08.427Z,15.77
2018-02-26T09:19:34.626Z,23.12
2018-02-26T09:22:00.827Z,24.90
2018-02-26T09:24:27.092Z,23.00
2018-02-26T09:26:53.368Z,20.60
2018-02-26T09:29:19.606Z,20.88
2018-02-26T09:31:45.809Z,22.85
2018-02-26T09:34:12.403Z,22.55
2018-02-26T09:36:38.614Z,24.08
2018-02-26T09:39:04.902Z,20.15
2018-02-26T09:41:31.467Z,25.48
2018-02-26T09:43:57.681Z,20.90
2018-02-26T09:46:23.934Z,21.02
2018-02-26T09:48:50.136Z,21.65
2018-02-26T09:51:16.311Z,25.27
2018-02-26T09:53:42.527Z,22.55
2018-02-26T09:56:08.746Z,24.50
2018-02-26T09:58:35.002Z,20.83
2018-02-26T10:01:01.224Z,22.95
2018-02-26T10:03:27.463Z,20.37
2018-02-26T10:05:53.666Z,19.48
2018-02-26T10:08:19.976Z,22.00
2018-02-26T10:10:46.219Z,22.08
2018-02-26T10:13:12.463Z,21.20
2018-02-26T10:15:38.727Z,19.02
2018-02-26T10:18:05.307Z,20.80
2018-02-26T10:20:31.523Z,18.52
2018-02-26T10:22:58.711Z,21.00
2018-02-26T10:25:25.257Z,20.48
2018-02-26T10:27:51.461Z,18.02
2018-02-26T10:30:17.692Z,18.20
2018-02-26T10:32:44.252Z,22.10
2018-02-26T10:35:10.464Z,21.60
2018-02-26T10:37:36.686Z,19.02
2018-02-26T10:40:03.276Z,25.67
2018-02-26T10:42:29.853Z,24.35
2018-02-26T10:44:56.049Z,20.05
2018-02-26T10:47:22.753Z,21.27
2018-02-26T10:49:48.961Z,19.23
2018-02-26T10:52:15.201Z,17.83
2018-02-26T10:54:41.834Z,23.05
2018-02-26T10:57:08.040Z,18.17
2018-02-26T10:59:34.253Z,21.87
2018-02-26T11:02:02.107Z,16.90
2018-02-26T11:04:29.468Z,19.95
2018-02-26T11:07:02.710Z,17.83
2018-02-26T11:09:28.999Z,19.83
2018-02-26T11:11:55.216Z,20.75
2018-02-26T11:14:21.469Z,23.12
2018-02-26T11:16:47.716Z,19.58
2018-02-26T11:19:13.941Z,17.67
2018-02-26T11:21:40.217Z,24.10
2018-02-26T11:24:06.441Z,17.90
2018-02-26T11:26:33.571Z,16.98
2018-02-26T11:28:59.799Z,20.12
2018-02-26T11:31:26.006Z,15.50
2018-02-26T11:33:52.231Z,19.27
2018-02-26T11:36:18.458Z,19.75
2018-02-26T11:38:44.692Z,15.25
2018-02-26T11:41:11.234Z,20.62
2018-02-26T11:43:37.430Z,17.77
2018-02-26T11:46:03.636Z,18.58
2018-02-26T11:48:29.895Z,19.42
2018-02-26T11:50:56.090Z,17.45
2018-02-26T11:53:22.367Z,17.23
2018-02-26T11:55:48.648Z,17.77
2018-02-26T11:58:14.907Z,16.77
2018-02-26T12:00:41.140Z,16.35
2018-02-26T12:03:08.282Z,14.80
2018-02-26T12:05:34.511Z,18.20
2018-02-26T12:08:00.768Z,18.48
2018-02-26T12:10:27.018Z,16.80
2018-02-26T12:12:53.576Z,18.30
2018-02-26T12:15:19.798Z,16.77
2018-02-26T12:17:46.066Z,18.98
2018-02-26T12:20:12.790Z,19.20
2018-02-26T12:22:38.990Z,25.08
2018-02-26T12:25:12.152Z,19.70
2018-02-26T12:27:38.766Z,21.48
2018-02-26T12:30:04.988Z,25.70
2018-02-26T12:32:31.235Z,17.95
2018-02-26T12:34:57.464Z,19.45
2018-02-26T12:37:23.675Z,22.75
2018-02-26T12:39:49.902Z,19.42
2018-02-26T12:42:16.191Z,17.02
2018-02-26T12:44:47.021Z,17.67
2018-02-26T12:50:03.686Z,15.18
2018-02-26T12:52:36.888Z,15.43
2018-02-26T12:55:03.114Z,16.35
2018-02-26T12:57:29.337Z,16.30
2018-02-26T12:59:55.537Z,15.65
2018-02-26T13:02:21.745Z,16.55
2018-02-26T13:04:48.001Z,14.32
2018-02-26T13:07:14.291Z,16.23
2018-02-26T13:09:40.493Z,14.75
2018-02-26T13:12:06.737Z,18.23
2018-02-26T13:14:33.323Z,19.55
2018-02-26T13:16:59.554Z,14.75
2018-02-26T13:19:25.779Z,16.10
2018-02-26T13:21:51.964Z,19.05
2018-02-26T13:24:18.230Z,17.20
2018-02-26T13:26:44.533Z,16.20
2018-02-26T13:29:10.749Z,19.25
2018-02-26T13:31:37.335Z,18.83
2018-02-26T13:34:03.595Z,20.37
2018-02-26T13:36:29.849Z,15.38
2018-02-26T13:38:56.076Z,18.58
2018-02-26T13:41:22.305Z,21.55
2018-02-26T13:43:48.553Z,17.65
2018-02-26T13:46:14.791Z,19.85
2018-02-26T13:48:40.986Z,18.12
2018-02-26T13:51:07.220Z,17.05
2018-02-26T13:53:33.416Z,14.90
2018-02-26T13:55:59.654Z,18.35
2018-02-26T13:58:26.967Z,15.13
2018-02-26T14:00:53.230Z,20.80
2018-02-26T14:03:19.684Z,16.30
2018-02-26T14:05:46.103Z,17.12
2018-02-26T14:08:12.544Z,18.62
2018-02-26T14:10:38.814Z,18.17
2018-02-26T14:13:05.104Z,22.45
2018-02-26T14:15:31.666Z,14.32
2018-02-26T14:17:58.044Z,16.37
2018-02-26T14:20:24.381Z,22.73
2018-02-26T14:22:51.026Z,26.62
2018-02-26T14:25:17.634Z,18.58
2018-02-26T14:27:44.055Z,20.75
2018-02-26T14:30:10.350Z,15.10
2018-02-26T14:32:36.724Z,12.15
2018-02-26T14:35:03.025Z,19.85
2018-02-26T14:37:29.610Z,13.77
2018-02-26T14:39:55.875Z,13.90
2018-02-26T14:42:22.097Z,14.00
2018-02-26T14:44:48.362Z,14.15
2018-02-26T14:47:14.592Z,15.30
2018-02-26T14:49:40.997Z,14.02
2018-02-26T14:52:07.420Z,17.58
2018-02-26T14:54:33.828Z,15.00
2018-02-26T14:57:00.579Z,16.37
2018-02-26T14:59:27.123Z,16.27
2018-02-26T15:01:53.386Z,15.00
2018-02-26T15:04:19.798Z,11.68
2018-02-26T15:06:47.051Z,14.05
2018-02-26T15:09:13.278Z,11.88
2018-02-26T15:11:39.691Z,13.62
2018-02-26T15:14:05.940Z,15.73
2018-02-26T15:16:32.180Z,17.20
2018-02-26T15:18:58.633Z,13.85
2018-02-26T15:21:25.782Z,19.62
2018-02-26T15:23:52.136Z,16.67
2018-02-26T15:26:18.685Z,17.70
2018-02-26T15:28:45.405Z,17.02
2018-02-26T15:31:11.597Z,15.15
2018-02-26T15:33:37.818Z,16.92
2018-02-26T15:36:04.254Z,16.67
2018-02-26T15:38:30.497Z,16.23
2018-02-26T15:40:56.766Z,12.68
2018-02-26T15:43:23.208Z,13.48
2018-02-26T15:45:49.728Z,12.18
2018-02-26T15:48:16.087Z,12.15
2018-02-26T15:50:42.323Z,11.80
2018-02-26T15:53:08.587Z,12.65
2018-02-26T15:55:34.821Z,14.48
2018-02-26T15:58:01.265Z,15.98
2018-02-26T16:00:27.500Z,15.32
2018-02-26T16:02:53.714Z,12.63
2018-02-26T16:05:20.008Z,11.93
2018-02-26T16:07:46.213Z,11.43
2018-02-26T16:10:12.833Z,12.25
2018-02-26T16:12:39.056Z,14.57
2018-02-26T16:15:05.320Z,13.32
2018-02-26T16:17:31.585Z,15.20
2018-02-26T16:19:57.849Z,10.45
2018-02-26T16:22:24.270Z,14.18
2018-02-26T16:24:50.739Z,11.48
2018-02-26T16:27:16.942Z,10.90
2018-02-26T16:29:43.273Z,10.35
2018-02-26T16:32:09.964Z,15.73
2018-02-26T16:34:36.202Z,14.77
2018-02-26T16:37:02.476Z,16.48
2018-02-26T16:39:29.685Z,20.88
2018-02-26T16:41:55.929Z,13.32
2018-02-26T16:44:22.238Z,11.90
2018-02-26T16:46:48.472Z,15.23
2018-02-26T16:49:14.712Z,19.65
2018-02-26T16:51:40.954Z,10.15
2018-02-26T16:54:07.230Z,13.05
2018-02-26T16:56:33.481Z,11.43
2018-02-26T16:58:59.708Z,10.13
2018-02-26T17:01:25.939Z,11.07
2018-02-26T17:03:52.201Z,14.32
2018-02-26T17:06:18.394Z,13.35
2018-02-26T17:08:44.612Z,14.90
2018-02-26T17:11:10.857Z,15.32
2018-02-26T17:13:37.084Z,17.85
2018-02-26T17:16:03.352Z,15.95
2018-02-26T17:18:29.948Z,17.87
2018-02-26T17:20:56.222Z,14.30
2018-02-26T17:23:22.499Z,17.92
2018-02-26T17:25:48.764Z,13.57
2018-02-26T17:28:15.078Z,14.63
2018-02-26T17:30:41.371Z,13.45
2018-02-26T17:33:07.597Z,14.20
2018-02-26T17:35:33.860Z,14.98
2018-02-26T17:38:00.810Z,18.48
2018-02-26T17:40:27.319Z,13.23
2018-02-26T17:42:53.534Z,14.32
2018-02-26T17:45:19.813Z,15.90
2018-02-26T17:47:46.011Z,14.07
2018-02-26T17:50:12.244Z,14.50
2018-02-26T17:52:38.482Z,13.32
2018-02-26T17:55:04.752Z,19.65
2018-02-26T17:57:31.003Z,16.50
2018-02-26T17:59:57.255Z,17.35
2018-02-26T18:02:23.529Z,16.58
2018-02-26T18:04:50.139Z,25.88
2018-02-26T18:07:16.691Z,21.25
2018-02-26T18:09:43.035Z,21.55
2018-02-26T18:12:09.276Z,19.00
2018-02-26T18:14:35.512Z,18.65
2018-02-26T18:17:01.768Z,18.98
2018-02-26T18:19:28.029Z,19.80
2018-02-26T18:21:54.296Z,14.40
2018-02-26T18:24:20.524Z,18.45
2018-02-26T18:26:46.812Z,19.23
2018-02-26T19:00:51.701Z,16.25
2018-02-26T19:03:18.054Z,16.65
2018-02-26T19:05:44.583Z,14.20
2018-02-26T19:08:11.025Z,13.88
2018-02-26T19:10:37.329Z,16.25
2018-02-26T19:13:03.629Z,15.30
2018-02-26T19:15:30.064Z,19.00
2018-02-26T19:17:56.304Z,15.20
2018-02-26T19:20:22.894Z,12.93
2018-02-26T19:22:49.220Z,16.92
2018-02-26T19:25:15.517Z,19.52
2018-02-26T19:27:41.821Z,20.02
2018-02-26T19:30:08.466Z,18.50
2018-02-26T19:32:35.008Z,19.17
2018-02-26T19:35:01.406Z,16.45
2018-02-26T19:37:28.098Z,19.90
2018-02-26T19:39:54.461Z,21.77
2018-02-26T19:42:21.685Z,24.48
2018-02-26T19:44:47.907Z,24.55
2018-02-26T19:47:14.271Z,18.77
2018-02-26T19:49:40.564Z,16.90
2018-02-26T19:52:06.829Z,14.10
2018-02-26T19:54:33.473Z,18.05
2018-02-26T19:56:59.772Z,17.55
2018-02-26T19:59:26.914Z,14.98
2018-02-26T20:01:57.118Z,18.33
2018-02-26T20:04:29.390Z,23.30
2018-02-26T20:06:55.816Z,24.12
2018-02-26T20:09:22.206Z,19.17
2018-02-26T20:11:49.236Z,21.62
2018-02-26T20:14:15.566Z,17.27
2018-02-26T20:16:42.743Z,22.42
2018-02-26T20:19:09.318Z,19.80
2018-02-26T20:21:35.682Z,16.27
2018-02-26T20:24:02.006Z,16.80
2018-02-26T20:26:28.899Z,20.17
2018-02-26T20:28:55.224Z,19.05
2018-02-26T20:31:21.903Z,21.83
2018-02-26T20:33:48.310Z,20.40
2018-02-26T20:36:14.592Z,18.95
2018-02-26T20:38:40.949Z,19.85
2018-02-26T20:41:07.200Z,17.45
2018-02-26T20:43:33.469Z,21.00
2018-02-26T20:45:59.707Z,20.17
2018-02-26T20:48:25.977Z,19.77
2018-02-26T20:50:52.555Z,15.93
2018-02-26T20:53:18.817Z,17.35
2018-02-26T20:55:45.088Z,17.20
2018-02-26T20:58:11.337Z,21.75
2018-02-26T21:00:37.607Z,16.35
2018-02-26T21:03:04.192Z,16.25
2018-02-26T21:05:30.455Z,20.62
2018-02-26T21:07:56.740Z,20.27
2018-02-26T21:10:23.066Z,20.90
2018-02-26T21:12:49.361Z,20.20
2018-02-26T21:15:15.616Z,17.08
2018-02-26T21:17:42.282Z,22.73
2018-02-26T21:20:08.595Z,21.77
2018-02-26T21:22:34.850Z,17.15
2018-02-26T21:25:01.136Z,17.12
2018-02-26T21:27:27.771Z,22.42
2018-02-26T21:29:54.400Z,18.80
2018-02-26T21:32:21.030Z,13.55
2018-02-26T21:34:47.272Z,14.98
2018-02-26T21:37:13.880Z,17.83
2018-02-26T21:39:40.116Z,16.33
2018-02-26T21:42:06.421Z,19.10
2018-02-26T21:44:32.639Z,19.15
2018-02-26T21:46:58.940Z,17.62
2018-02-26T21:49:25.273Z,19.70
2018-02-26T21:51:51.531Z,18.10
2018-02-26T21:54:17.807Z,15.18
2018-02-26T21:56:44.201Z,17.73
2018-02-26T21:59:10.416Z,18.55
2018-02-26T22:01:36.663Z,15.65
2018-02-26T22:04:02.985Z,18.52
2018-02-26T22:06:29.238Z,16.05
2018-02-26T22:08:55.492Z,21.30
2018-02-26T22:11:22.121Z,20.67
2018-02-26T22:13:48.833Z,14.32
2018-02-26T22:16:15.059Z,15.75
2018-02-26T22:18:41.373Z,15.75
2018-02-26T22:21:07.655Z,16.52
2018-02-26T22:23:34.343Z,14.45
2018-02-26T22:26:00.586Z,15.88
2018-02-26T22:28:26.871Z,14.00
2018-02-26T22:30:53.111Z,13.35
2018-02-26T22:33:19.800Z,14.85
2018-02-26T22:35:46.051Z,15.18
2018-02-26T22:38:12.660Z,12.05
2018-02-26T22:40:38.934Z,13.43
2018-02-26T22:43:05.321Z,11.40
2018-02-26T22:45:31.673Z,10.23
2018-02-26T22:47:57.882Z,13.18
2018-02-26T22:50:24.160Z,11.50
2018-02-26T22:52:50.370Z,11.05
2018-02-26T22:55:16.665Z,17.62
2018-02-26T22:57:42.915Z,10.27
2018-02-26T23:00:09.542Z,14.43
2018-02-26T23:02:35.783Z,11.25
2018-02-26T23:05:02.457Z,13.73
2018-02-26T23:07:28.678Z,8.98
2018-02-26T23:09:54.949Z,12.23
2018-02-26T23:12:21.175Z,12.20
2018-02-26T23:14:47.478Z,10.15
2018-02-26T23:17:13.702Z,8.95
2018-02-26T23:19:39.903Z,9.25
2018-02-26T23:22:06.106Z,12.80
2018-02-26T23:24:32.439Z,9.10
2018-02-26T23:26:59.100Z,9.65
2018-02-26T23:29:25.361Z,9.25
2018-02-26T23:31:51.625Z,10.43
2018-02-26T23:34:17.955Z,8.45
2018-02-26T23:36:44.176Z,8.88
2018-02-26T23:39:10.380Z,9.57
2018-02-26T23:41:36.622Z,8.27
2018-02-26T23:44:02.861Z,11.90
2018-02-26T23:46:29.175Z,13.43
2018-02-26T23:48:55.420Z,9.00
2018-02-26T23:51:21.653Z,10.18
2018-02-26T23:53:47.903Z,14.45
2018-02-26T23:56:14.623Z,9.30
2018-02-26T23:58:40.856Z,10.07
